sensor_id;sensor_type;location;lat;lon;timestamp;P1;durP1;ratioP1;P2;durP2;ratioP2
72408;SDS011;60402;48.082;11.628;2023-04-24T00:02:23;1.02;;;0.60;;
72408;SDS011;60402;48.082;11.628;2023-04-24T00:05:09;1.92;;;0.60;;
72408;SDS011;60402;48.082;11.628;2023-04-24T00:07:54;1.02;;;0.47;;
72408;SDS011;60402;48.082;11.628;2023-04-24T00:10:40;1.88;;;0.60;;
72408;SDS011;60402;48.082;11.628;2023-04-24T00:13:26;1.08;;;0.52;;
72408;SDS011;60402;48.082;11.628;2023-04-24T00:16:13;0.77;;;0.55;;
72408;SDS011;60402;48.082;11.628;2023-04-24T00:18:59;2.25;;;0.70;;
72408;SDS011;60402;48.082;11.628;2023-04-24T00:21:46;1.00;;;0.50;;
72408;SDS011;60402;48.082;11.628;2023-04-24T00:24:31;1.20;;;0.60;;
72408;SDS011;60402;48.082;11.628;2023-04-24T00:27:17;1.55;;;0.60;;
72408;SDS011;60402;48.082;11.628;2023-04-24T00:30:03;2.38;;;0.77;;
72408;SDS011;60402;48.082;11.628;2023-04-24T00:32:49;2.15;;;0.50;;
72408;SDS011;60402;48.082;11.628;2023-04-24T00:35:34;1.15;;;0.73;;
72408;SDS011;60402;48.082;11.628;2023-04-24T00:38:20;1.70;;;0.47;;
72408;SDS011;60402;48.082;11.628;2023-04-24T00:41:07;1.45;;;0.85;;
72408;SDS011;60402;48.082;11.628;2023-04-24T00:43:53;0.88;;;0.43;;
72408;SDS011;60402;48.082;11.628;2023-04-24T00:46:38;1.02;;;0.50;;
72408;SDS011;60402;48.082;11.628;2023-04-24T00:49:24;1.27;;;0.60;;
72408;SDS011;60402;48.082;11.628;2023-04-24T00:52:10;1.55;;;0.47;;
72408;SDS011;60402;48.082;11.628;2023-04-24T00:54:57;1.35;;;0.40;;
72408;SDS011;60402;48.082;11.628;2023-04-24T00:57:44;1.20;;;0.40;;
72408;SDS011;60402;48.082;11.628;2023-04-24T01:00:30;0.88;;;0.50;;
72408;SDS011;60402;48.082;11.628;2023-04-24T01:03:16;1.13;;;0.40;;
72408;SDS011;60402;48.082;11.628;2023-04-24T01:06:03;0.65;;;0.40;;
72408;SDS011;60402;48.082;11.628;2023-04-24T01:08:50;0.65;;;0.50;;
72408;SDS011;60402;48.082;11.628;2023-04-24T01:11:36;1.42;;;0.63;;
72408;SDS011;60402;48.082;11.628;2023-04-24T01:14:22;3.20;;;0.40;;
72408;SDS011;60402;48.082;11.628;2023-04-24T01:17:08;0.60;;;0.30;;
72408;SDS011;60402;48.082;11.628;2023-04-24T01:19:54;0.40;;;0.30;;
72408;SDS011;60402;48.082;11.628;2023-04-24T01:22:42;0.52;;;0.35;;
72408;SDS011;60402;48.082;11.628;2023-04-24T01:25:28;1.40;;;0.30;;
72408;SDS011;60402;48.082;11.628;2023-04-24T01:28:14;0.22;;;0.20;;
72408;SDS011;60402;48.082;11.628;2023-04-24T01:31:00;0.88;;;0.20;;
72408;SDS011;60402;48.082;11.628;2023-04-24T01:33:46;0.75;;;0.40;;
72408;SDS011;60402;48.082;11.628;2023-04-24T01:36:32;0.25;;;0.22;;
72408;SDS011;60402;48.082;11.628;2023-04-24T01:39:20;0.50;;;0.20;;
72408;SDS011;60402;48.082;11.628;2023-04-24T01:42:08;0.60;;;0.20;;
72408;SDS011;60402;48.082;11.628;2023-04-24T01:44:54;0.22;;;0.13;;
72408;SDS011;60402;48.082;11.628;2023-04-24T01:47:40;0.40;;;0.28;;
72408;SDS011;60402;48.082;11.628;2023-04-24T01:50:25;0.47;;;0.30;;
72408;SDS011;60402;48.082;11.628;2023-04-24T01:53:11;0.10;;;0.10;;
72408;SDS011;60402;48.082;11.628;2023-04-24T01:55:57;0.30;;;0.20;;
72408;SDS011;60402;48.082;11.628;2023-04-24T01:58:43;0.88;;;0.28;;
72408;SDS011;60402;48.082;11.628;2023-04-24T02:01:33;0.50;;;0.20;;
72408;SDS011;60402;48.082;11.628;2023-04-24T02:04:21;0.63;;;0.20;;
72408;SDS011;60402;48.082;11.628;2023-04-24T02:07:06;0.20;;;0.17;;
72408;SDS011;60402;48.082;11.628;2023-04-24T02:09:53;0.45;;;0.30;;
72408;SDS011;60402;48.082;11.628;2023-04-24T02:12:38;0.93;;;0.52;;
72408;SDS011;60402;48.082;11.628;2023-04-24T02:15:24;0.20;;;0.10;;
72408;SDS011;60402;48.082;11.628;2023-04-24T02:18:10;0.45;;;0.20;;
72408;SDS011;60402;48.082;11.628;2023-04-24T02:20:56;2.00;;;0.40;;
72408;SDS011;60402;48.082;11.628;2023-04-24T02:23:42;0.20;;;0.20;;
72408;SDS011;60402;48.082;11.628;2023-04-24T02:26:28;0.30;;;0.10;;
72408;SDS011;60402;48.082;11.628;2023-04-24T02:29:13;0.47;;;0.20;;
72408;SDS011;60402;48.082;11.628;2023-04-24T02:31:59;1.50;;;0.20;;
72408;SDS011;60402;48.082;11.628;2023-04-24T02:34:44;0.40;;;0.17;;
72408;SDS011;60402;48.082;11.628;2023-04-24T02:37:30;0.70;;;0.25;;
72408;SDS011;60402;48.082;11.628;2023-04-24T02:40:16;2.65;;;0.30;;
72408;SDS011;60402;48.082;11.628;2023-04-24T02:43:02;0.65;;;0.40;;
72408;SDS011;60402;48.082;11.628;2023-04-24T02:45:47;0.25;;;0.20;;
72408;SDS011;60402;48.082;11.628;2023-04-24T02:48:34;0.75;;;0.20;;
72408;SDS011;60402;48.082;11.628;2023-04-24T02:51:19;0.22;;;0.20;;
72408;SDS011;60402;48.082;11.628;2023-04-24T02:54:05;0.45;;;0.20;;
72408;SDS011;60402;48.082;11.628;2023-04-24T02:56:51;1.13;;;0.30;;
72408;SDS011;60402;48.082;11.628;2023-04-24T02:59:36;0.10;;;0.10;;
72408;SDS011;60402;48.082;11.628;2023-04-24T03:02:22;0.40;;;0.10;;
72408;SDS011;60402;48.082;11.628;2023-04-24T03:05:08;0.95;;;0.30;;
72408;SDS011;60402;48.082;11.628;2023-04-24T03:07:54;0.50;;;0.10;;
72408;SDS011;60402;48.082;11.628;2023-04-24T03:10:39;1.08;;;0.30;;
72408;SDS011;60402;48.082;11.628;2023-04-24T03:13:25;0.30;;;0.20;;
72408;SDS011;60402;48.082;11.628;2023-04-24T03:16:11;0.13;;;0.13;;
72408;SDS011;60402;48.082;11.628;2023-04-24T03:18:57;0.22;;;0.22;;
72408;SDS011;60402;48.082;11.628;2023-04-24T03:21:42;0.47;;;0.22;;
72408;SDS011;60402;48.082;11.628;2023-04-24T03:24:29;1.10;;;0.20;;
72408;SDS011;60402;48.082;11.628;2023-04-24T03:27:15;1.92;;;0.30;;
72408;SDS011;60402;48.082;11.628;2023-04-24T03:30:01;0.30;;;0.20;;
72408;SDS011;60402;48.082;11.628;2023-04-24T03:32:47;0.20;;;0.20;;
72408;SDS011;60402;48.082;11.628;2023-04-24T03:35:33;0.65;;;0.20;;
72408;SDS011;60402;48.082;11.628;2023-04-24T03:38:19;0.28;;;0.20;;
72408;SDS011;60402;48.082;11.628;2023-04-24T03:41:04;1.48;;;0.80;;
72408;SDS011;60402;48.082;11.628;2023-04-24T03:43:50;0.75;;;0.30;;
72408;SDS011;60402;48.082;11.628;2023-04-24T03:46:36;1.27;;;0.40;;
72408;SDS011;60402;48.082;11.628;2023-04-24T03:49:21;0.55;;;0.30;;
72408;SDS011;60402;48.082;11.628;2023-04-24T03:52:07;0.75;;;0.28;;
72408;SDS011;60402;48.082;11.628;2023-04-24T03:54:52;0.95;;;0.40;;
72408;SDS011;60402;48.082;11.628;2023-04-24T03:57:39;1.92;;;0.52;;
72408;SDS011;60402;48.082;11.628;2023-04-24T04:00:25;0.75;;;0.20;;
72408;SDS011;60402;48.082;11.628;2023-04-24T04:03:11;0.40;;;0.30;;
72408;SDS011;60402;48.082;11.628;2023-04-24T04:05:58;0.88;;;0.40;;
72408;SDS011;60402;48.082;11.628;2023-04-24T04:08:44;1.55;;;0.40;;
72408;SDS011;60402;48.082;11.628;2023-04-24T04:11:29;0.85;;;0.50;;
72408;SDS011;60402;48.082;11.628;2023-04-24T04:14:16;0.98;;;0.40;;
72408;SDS011;60402;48.082;11.628;2023-04-24T04:17:02;1.60;;;0.50;;
72408;SDS011;60402;48.082;11.628;2023-04-24T04:19:47;1.50;;;0.40;;
72408;SDS011;60402;48.082;11.628;2023-04-24T04:22:33;1.20;;;0.32;;
72408;SDS011;60402;48.082;11.628;2023-04-24T04:25:19;1.10;;;0.30;;
72408;SDS011;60402;48.082;11.628;2023-04-24T04:28:04;1.15;;;0.30;;
72408;SDS011;60402;48.082;11.628;2023-04-24T04:30:50;1.42;;;0.40;;
72408;SDS011;60402;48.082;11.628;2023-04-24T04:33:39;0.95;;;0.45;;
72408;SDS011;60402;48.082;11.628;2023-04-24T04:36:25;1.55;;;0.55;;
72408;SDS011;60402;48.082;11.628;2023-04-24T04:39:11;0.50;;;0.30;;
72408;SDS011;60402;48.082;11.628;2023-04-24T04:41:56;0.60;;;0.30;;
72408;SDS011;60402;48.082;11.628;2023-04-24T04:44:43;1.13;;;0.38;;
72408;SDS011;60402;48.082;11.628;2023-04-24T04:47:30;0.60;;;0.32;;
72408;SDS011;60402;48.082;11.628;2023-04-24T04:50:17;0.28;;;0.20;;
72408;SDS011;60402;48.082;11.628;2023-04-24T04:53:04;0.68;;;0.22;;
72408;SDS011;60402;48.082;11.628;2023-04-24T04:55:50;0.30;;;0.20;;
72408;SDS011;60402;48.082;11.628;2023-04-24T04:58:36;0.52;;;0.32;;
72408;SDS011;60402;48.082;11.628;2023-04-24T05:01:22;0.88;;;0.30;;
72408;SDS011;60402;48.082;11.628;2023-04-24T05:04:08;0.63;;;0.25;;
72408;SDS011;60402;48.082;11.628;2023-04-24T05:06:54;0.77;;;0.28;;
72408;SDS011;60402;48.082;11.628;2023-04-24T05:09:39;0.63;;;0.30;;
72408;SDS011;60402;48.082;11.628;2023-04-24T05:12:25;0.50;;;0.30;;
72408;SDS011;60402;48.082;11.628;2023-04-24T05:15:11;0.25;;;0.20;;
72408;SDS011;60402;48.082;11.628;2023-04-24T05:17:57;0.52;;;0.30;;
72408;SDS011;60402;48.082;11.628;2023-04-24T05:20:42;0.35;;;0.25;;
72408;SDS011;60402;48.082;11.628;2023-04-24T05:23:29;1.55;;;0.38;;
72408;SDS011;60402;48.082;11.628;2023-04-24T05:26:14;0.30;;;0.28;;
72408;SDS011;60402;48.082;11.628;2023-04-24T05:29:01;0.63;;;0.30;;
72408;SDS011;60402;48.082;11.628;2023-04-24T05:31:48;0.40;;;0.13;;
72408;SDS011;60402;48.082;11.628;2023-04-24T05:34:33;1.10;;;0.28;;
72408;SDS011;60402;48.082;11.628;2023-04-24T05:37:19;0.93;;;0.38;;
72408;SDS011;60402;48.082;11.628;2023-04-24T05:40:05;1.48;;;0.40;;
72408;SDS011;60402;48.082;11.628;2023-04-24T05:42:51;0.85;;;0.22;;
72408;SDS011;60402;48.082;11.628;2023-04-24T05:45:37;0.57;;;0.28;;
72408;SDS011;60402;48.082;11.628;2023-04-24T05:48:23;1.30;;;0.28;;
72408;SDS011;60402;48.082;11.628;2023-04-24T05:51:09;0.63;;;0.40;;
72408;SDS011;60402;48.082;11.628;2023-04-24T05:53:55;0.90;;;0.30;;
72408;SDS011;60402;48.082;11.628;2023-04-24T05:56:41;1.88;;;0.40;;
72408;SDS011;60402;48.082;11.628;2023-04-24T05:59:27;0.43;;;0.13;;
72408;SDS011;60402;48.082;11.628;2023-04-24T06:02:12;1.48;;;0.30;;
72408;SDS011;60402;48.082;11.628;2023-04-24T06:04:58;0.65;;;0.30;;
72408;SDS011;60402;48.082;11.628;2023-04-24T06:07:44;0.52;;;0.10;;
72408;SDS011;60402;48.082;11.628;2023-04-24T06:10:31;1.10;;;0.40;;
72408;SDS011;60402;48.082;11.628;2023-04-24T06:13:16;1.55;;;0.38;;
72408;SDS011;60402;48.082;11.628;2023-04-24T06:16:02;0.22;;;0.10;;
72408;SDS011;60402;48.082;11.628;2023-04-24T06:18:48;0.95;;;0.20;;
72408;SDS011;60402;48.082;11.628;2023-04-24T06:21:34;0.20;;;0.10;;
72408;SDS011;60402;48.082;11.628;2023-04-24T06:24:19;0.30;;;0.30;;
72408;SDS011;60402;48.082;11.628;2023-04-24T06:27:05;0.50;;;0.30;;
72408;SDS011;60402;48.082;11.628;2023-04-24T06:29:51;0.63;;;0.22;;
72408;SDS011;60402;48.082;11.628;2023-04-24T06:32:39;0.25;;;0.20;;
72408;SDS011;60402;48.082;11.628;2023-04-24T06:35:25;0.75;;;0.10;;
72408;SDS011;60402;48.082;11.628;2023-04-24T06:38:11;0.68;;;0.30;;
72408;SDS011;60402;48.082;11.628;2023-04-24T06:40:57;0.90;;;0.20;;
72408;SDS011;60402;48.082;11.628;2023-04-24T06:43:42;0.15;;;0.13;;
72408;SDS011;60402;48.082;11.628;2023-04-24T06:46:28;0.63;;;0.20;;
72408;SDS011;60402;48.082;11.628;2023-04-24T06:49:14;0.30;;;0.20;;
72408;SDS011;60402;48.082;11.628;2023-04-24T06:52:01;1.40;;;0.22;;
72408;SDS011;60402;48.082;11.628;2023-04-24T06:54:46;0.28;;;0.10;;
72408;SDS011;60402;48.082;11.628;2023-04-24T06:57:32;0.20;;;0.10;;
72408;SDS011;60402;48.082;11.628;2023-04-24T07:00:18;0.20;;;0.10;;
72408;SDS011;60402;48.082;11.628;2023-04-24T07:03:04;0.65;;;0.20;;
72408;SDS011;60402;48.082;11.628;2023-04-24T07:05:53;0.25;;;0.10;;
72408;SDS011;60402;48.082;11.628;2023-04-24T07:08:40;0.50;;;0.20;;
72408;SDS011;60402;48.082;11.628;2023-04-24T07:11:27;0.68;;;0.17;;
72408;SDS011;60402;48.082;11.628;2023-04-24T07:14:14;0.90;;;0.20;;
72408;SDS011;60402;48.082;11.628;2023-04-24T07:17:00;1.77;;;0.20;;
72408;SDS011;60402;48.082;11.628;2023-04-24T07:19:48;2.50;;;0.35;;
72408;SDS011;60402;48.082;11.628;2023-04-24T07:22:33;2.08;;;0.22;;
72408;SDS011;60402;48.082;11.628;2023-04-24T07:25:19;1.00;;;0.15;;
72408;SDS011;60402;48.082;11.628;2023-04-24T07:28:05;0.17;;;0.10;;
72408;SDS011;60402;48.082;11.628;2023-04-24T07:30:51;0.30;;;0.20;;
72408;SDS011;60402;48.082;11.628;2023-04-24T07:33:39;0.70;;;0.13;;
72408;SDS011;60402;48.082;11.628;2023-04-24T07:36:24;0.77;;;0.17;;
72408;SDS011;60402;48.082;11.628;2023-04-24T07:39:11;0.43;;;0.10;;
72408;SDS011;60402;48.082;11.628;2023-04-24T07:41:57;0.88;;;0.25;;
72408;SDS011;60402;48.082;11.628;2023-04-24T07:44:44;2.58;;;0.50;;
72408;SDS011;60402;48.082;11.628;2023-04-24T07:47:32;0.20;;;0.20;;
72408;SDS011;60402;48.082;11.628;2023-04-24T07:50:18;0.15;;;0.10;;
72408;SDS011;60402;48.082;11.628;2023-04-24T07:53:04;4.05;;;0.40;;
72408;SDS011;60402;48.082;11.628;2023-04-24T07:55:49;1.98;;;0.38;;
72408;SDS011;60402;48.082;11.628;2023-04-24T07:58:35;0.73;;;0.22;;
72408;SDS011;60402;48.082;11.628;2023-04-24T08:01:21;0.90;;;0.20;;
72408;SDS011;60402;48.082;11.628;2023-04-24T08:04:06;0.35;;;0.10;;
72408;SDS011;60402;48.082;11.628;2023-04-24T08:06:52;0.57;;;0.20;;
72408;SDS011;60402;48.082;11.628;2023-04-24T08:09:38;0.43;;;0.10;;
72408;SDS011;60402;48.082;11.628;2023-04-24T08:12:24;0.30;;;0.20;;
72408;SDS011;60402;48.082;11.628;2023-04-24T08:15:09;0.63;;;0.20;;
72408;SDS011;60402;48.082;11.628;2023-04-24T08:17:55;0.20;;;0.10;;
72408;SDS011;60402;48.082;11.628;2023-04-24T08:20:42;0.20;;;0.10;;
72408;SDS011;60402;48.082;11.628;2023-04-24T08:23:28;2.03;;;0.30;;
72408;SDS011;60402;48.082;11.628;2023-04-24T08:26:15;2.65;;;0.30;;
72408;SDS011;60402;48.082;11.628;2023-04-24T08:29:00;1.88;;;0.40;;
72408;SDS011;60402;48.082;11.628;2023-04-24T08:31:46;0.30;;;0.13;;
72408;SDS011;60402;48.082;11.628;2023-04-24T08:34:32;0.38;;;0.30;;
72408;SDS011;60402;48.082;11.628;2023-04-24T08:37:17;0.30;;;0.22;;
72408;SDS011;60402;48.082;11.628;2023-04-24T08:40:05;0.38;;;0.17;;
72408;SDS011;60402;48.082;11.628;2023-04-24T08:42:59;0.43;;;0.15;;
72408;SDS011;60402;48.082;11.628;2023-04-24T08:45:45;0.20;;;0.20;;
72408;SDS011;60402;48.082;11.628;2023-04-24T08:48:31;1.67;;;0.38;;
72408;SDS011;60402;48.082;11.628;2023-04-24T08:51:17;0.60;;;0.30;;
72408;SDS011;60402;48.082;11.628;2023-04-24T08:54:04;1.95;;;0.45;;
72408;SDS011;60402;48.082;11.628;2023-04-24T08:56:50;0.88;;;0.60;;
72408;SDS011;60402;48.082;11.628;2023-04-24T08:59:38;2.03;;;0.52;;
72408;SDS011;60402;48.082;11.628;2023-04-24T09:02:25;1.20;;;0.60;;
72408;SDS011;60402;48.082;11.628;2023-04-24T09:05:12;1.80;;;0.63;;
72408;SDS011;60402;48.082;11.628;2023-04-24T09:08:04;0.68;;;0.60;;
72408;SDS011;60402;48.082;11.628;2023-04-24T09:10:51;1.10;;;0.45;;
72408;SDS011;60402;48.082;11.628;2023-04-24T09:13:37;2.20;;;0.60;;
72408;SDS011;60402;48.082;11.628;2023-04-24T09:16:22;1.75;;;0.70;;
72408;SDS011;60402;48.082;11.628;2023-04-24T09:19:10;0.57;;;0.40;;
72408;SDS011;60402;48.082;11.628;2023-04-24T09:21:56;0.73;;;0.50;;
72408;SDS011;60402;48.082;11.628;2023-04-24T09:24:42;1.60;;;0.52;;
72408;SDS011;60402;48.082;11.628;2023-04-24T09:27:28;2.38;;;0.60;;
72408;SDS011;60402;48.082;11.628;2023-04-24T09:30:14;1.80;;;0.68;;
72408;SDS011;60402;48.082;11.628;2023-04-24T09:33:13;1.50;;;0.50;;
72408;SDS011;60402;48.082;11.628;2023-04-24T09:36:00;2.17;;;0.55;;
72408;SDS011;60402;48.082;11.628;2023-04-24T09:38:46;1.33;;;0.43;;
72408;SDS011;60402;48.082;11.628;2023-04-24T09:41:32;0.60;;;0.55;;
72408;SDS011;60402;48.082;11.628;2023-04-24T09:44:21;1.42;;;0.60;;
72408;SDS011;60402;48.082;11.628;2023-04-24T09:47:08;1.23;;;0.60;;
72408;SDS011;60402;48.082;11.628;2023-04-24T09:49:57;0.77;;;0.50;;
72408;SDS011;60402;48.082;11.628;2023-04-24T09:52:47;1.05;;;0.60;;
72408;SDS011;60402;48.082;11.628;2023-04-24T09:55:44;2.00;;;0.80;;
72408;SDS011;60402;48.082;11.628;2023-04-24T09:58:31;1.63;;;0.60;;
72408;SDS011;60402;48.082;11.628;2023-04-24T10:01:28;2.05;;;0.90;;
72408;SDS011;60402;48.082;11.628;2023-04-24T10:07:09;2.05;;;0.63;;
72408;SDS011;60402;48.082;11.628;2023-04-24T10:09:55;0.73;;;0.57;;
72408;SDS011;60402;48.082;11.628;2023-04-24T10:12:41;1.65;;;0.85;;
72408;SDS011;60402;48.082;11.628;2023-04-24T10:15:27;0.82;;;0.55;;
72408;SDS011;60402;48.082;11.628;2023-04-24T10:18:13;0.93;;;0.63;;
72408;SDS011;60402;48.082;11.628;2023-04-24T10:20:59;2.25;;;0.75;;
72408;SDS011;60402;48.082;11.628;2023-04-24T10:23:45;0.90;;;0.50;;
72408;SDS011;60402;48.082;11.628;2023-04-24T10:26:31;0.82;;;0.68;;
72408;SDS011;60402;48.082;11.628;2023-04-24T10:29:18;1.52;;;0.70;;
72408;SDS011;60402;48.082;11.628;2023-04-24T10:32:06;1.40;;;0.65;;
72408;SDS011;60402;48.082;11.628;2023-04-24T10:34:52;2.00;;;0.73;;
72408;SDS011;60402;48.082;11.628;2023-04-24T10:37:39;1.23;;;0.80;;
72408;SDS011;60402;48.082;11.628;2023-04-24T10:40:29;2.20;;;0.85;;
72408;SDS011;60402;48.082;11.628;2023-04-24T10:43:18;1.23;;;0.65;;
72408;SDS011;60402;48.082;11.628;2023-04-24T10:46:05;1.50;;;0.80;;
72408;SDS011;60402;48.082;11.628;2023-04-24T10:48:54;1.25;;;0.73;;
72408;SDS011;60402;48.082;11.628;2023-04-24T10:51:47;1.20;;;0.60;;
72408;SDS011;60402;48.082;11.628;2023-04-24T10:54:42;1.27;;;0.65;;
72408;SDS011;60402;48.082;11.628;2023-04-24T10:57:30;1.35;;;0.63;;
72408;SDS011;60402;48.082;11.628;2023-04-24T11:00:19;0.57;;;0.30;;
72408;SDS011;60402;48.082;11.628;2023-04-24T11:03:12;1.55;;;0.35;;
72408;SDS011;60402;48.082;11.628;2023-04-24T11:06:08;1.85;;;0.32;;
72408;SDS011;60402;48.082;11.628;2023-04-24T11:08:58;1.20;;;0.40;;
72408;SDS011;60402;48.082;11.628;2023-04-24T11:11:48;0.50;;;0.38;;
72408;SDS011;60402;48.082;11.628;2023-04-24T11:17:44;1.23;;;0.30;;
72408;SDS011;60402;48.082;11.628;2023-04-24T11:20:30;0.43;;;0.30;;
72408;SDS011;60402;48.082;11.628;2023-04-24T11:23:16;1.38;;;0.40;;
72408;SDS011;60402;48.082;11.628;2023-04-24T11:26:14;0.77;;;0.40;;
72408;SDS011;60402;48.082;11.628;2023-04-24T11:29:07;2.05;;;0.65;;
72408;SDS011;60402;48.082;11.628;2023-04-24T11:31:53;1.30;;;0.65;;
72408;SDS011;60402;48.082;11.628;2023-04-24T11:34:39;1.88;;;0.70;;
72408;SDS011;60402;48.082;11.628;2023-04-24T11:37:28;1.20;;;0.57;;
72408;SDS011;60402;48.082;11.628;2023-04-24T11:40:19;2.25;;;0.70;;
72408;SDS011;60402;48.082;11.628;2023-04-24T11:43:08;1.63;;;1.00;;
72408;SDS011;60402;48.082;11.628;2023-04-24T11:45:54;1.73;;;0.70;;
72408;SDS011;60402;48.082;11.628;2023-04-24T11:48:44;1.02;;;0.70;;
72408;SDS011;60402;48.082;11.628;2023-04-24T11:51:30;1.88;;;0.77;;
72408;SDS011;60402;48.082;11.628;2023-04-24T11:54:16;2.65;;;0.60;;
72408;SDS011;60402;48.082;11.628;2023-04-24T11:57:05;1.00;;;0.60;;
72408;SDS011;60402;48.082;11.628;2023-04-24T11:59:52;1.48;;;0.80;;
72408;SDS011;60402;48.082;11.628;2023-04-24T12:02:37;2.72;;;0.60;;
72408;SDS011;60402;48.082;11.628;2023-04-24T12:05:24;1.27;;;0.70;;
72408;SDS011;60402;48.082;11.628;2023-04-24T12:08:11;3.22;;;0.98;;
72408;SDS011;60402;48.082;11.628;2023-04-24T12:10:57;1.52;;;0.60;;
72408;SDS011;60402;48.082;11.628;2023-04-24T12:13:43;2.45;;;0.90;;
72408;SDS011;60402;48.082;11.628;2023-04-24T12:16:29;1.90;;;0.80;;
72408;SDS011;60402;48.082;11.628;2023-04-24T12:19:23;2.17;;;0.80;;
72408;SDS011;60402;48.082;11.628;2023-04-24T12:22:09;1.38;;;0.52;;
72408;SDS011;60402;48.082;11.628;2023-04-24T12:25:01;1.20;;;0.70;;
72408;SDS011;60402;48.082;11.628;2023-04-24T12:27:53;1.00;;;0.70;;
72408;SDS011;60402;48.082;11.628;2023-04-24T12:30:41;1.75;;;0.80;;
72408;SDS011;60402;48.082;11.628;2023-04-24T12:33:34;4.47;;;0.73;;
72408;SDS011;60402;48.082;11.628;2023-04-24T12:36:20;1.40;;;0.75;;
72408;SDS011;60402;48.082;11.628;2023-04-24T12:39:14;1.38;;;0.70;;
72408;SDS011;60402;48.082;11.628;2023-04-24T12:42:02;2.40;;;0.90;;
72408;SDS011;60402;48.082;11.628;2023-04-24T12:44:48;2.50;;;1.00;;
72408;SDS011;60402;48.082;11.628;2023-04-24T12:47:34;0.98;;;0.60;;
72408;SDS011;60402;48.082;11.628;2023-04-24T12:50:20;2.60;;;0.80;;
72408;SDS011;60402;48.082;11.628;2023-04-24T12:53:07;2.30;;;0.90;;
72408;SDS011;60402;48.082;11.628;2023-04-24T12:55:53;1.73;;;0.70;;
72408;SDS011;60402;48.082;11.628;2023-04-24T12:58:39;2.50;;;1.00;;
72408;SDS011;60402;48.082;11.628;2023-04-24T13:01:26;2.15;;;0.80;;
72408;SDS011;60402;48.082;11.628;2023-04-24T13:04:11;2.78;;;1.10;;
72408;SDS011;60402;48.082;11.628;2023-04-24T13:06:57;1.58;;;0.90;;
72408;SDS011;60402;48.082;11.628;2023-04-24T13:09:43;2.17;;;1.00;;
72408;SDS011;60402;48.082;11.628;2023-04-24T13:12:29;1.45;;;0.82;;
72408;SDS011;60402;48.082;11.628;2023-04-24T13:15:15;3.35;;;1.00;;
72408;SDS011;60402;48.082;11.628;2023-04-24T13:18:01;3.00;;;0.90;;
72408;SDS011;60402;48.082;11.628;2023-04-24T13:20:47;1.80;;;0.90;;
72408;SDS011;60402;48.082;11.628;2023-04-24T13:23:32;1.35;;;0.88;;
72408;SDS011;60402;48.082;11.628;2023-04-24T13:26:18;2.10;;;0.90;;
72408;SDS011;60402;48.082;11.628;2023-04-24T13:29:04;4.03;;;1.00;;
72408;SDS011;60402;48.082;11.628;2023-04-24T13:31:50;2.35;;;0.70;;
72408;SDS011;60402;48.082;11.628;2023-04-24T13:34:36;4.00;;;1.00;;
72408;SDS011;60402;48.082;11.628;2023-04-24T13:37:22;3.50;;;1.00;;
72408;SDS011;60402;48.082;11.628;2023-04-24T13:40:08;2.00;;;0.90;;
72408;SDS011;60402;48.082;11.628;2023-04-24T13:42:54;2.50;;;1.08;;
72408;SDS011;60402;48.082;11.628;2023-04-24T13:45:40;2.85;;;1.00;;
72408;SDS011;60402;48.082;11.628;2023-04-24T13:48:25;1.88;;;0.98;;
72408;SDS011;60402;48.082;11.628;2023-04-24T13:51:11;2.22;;;1.00;;
72408;SDS011;60402;48.082;11.628;2023-04-24T13:53:56;2.08;;;0.95;;
72408;SDS011;60402;48.082;11.628;2023-04-24T13:56:42;1.60;;;0.90;;
72408;SDS011;60402;48.082;11.628;2023-04-24T13:59:28;3.45;;;1.20;;
72408;SDS011;60402;48.082;11.628;2023-04-24T14:02:14;4.78;;;1.13;;
72408;SDS011;60402;48.082;11.628;2023-04-24T14:04:59;2.47;;;0.93;;
72408;SDS011;60402;48.082;11.628;2023-04-24T14:07:45;3.28;;;1.00;;
72408;SDS011;60402;48.082;11.628;2023-04-24T14:10:31;1.67;;;0.88;;
72408;SDS011;60402;48.082;11.628;2023-04-24T14:13:16;4.30;;;1.10;;
72408;SDS011;60402;48.082;11.628;2023-04-24T14:16:03;1.27;;;0.80;;
72408;SDS011;60402;48.082;11.628;2023-04-24T14:18:49;3.05;;;1.20;;
72408;SDS011;60402;48.082;11.628;2023-04-24T14:21:35;3.90;;;1.08;;
72408;SDS011;60402;48.082;11.628;2023-04-24T14:24:21;2.95;;;1.00;;
72408;SDS011;60402;48.082;11.628;2023-04-24T14:27:06;2.78;;;0.88;;
72408;SDS011;60402;48.082;11.628;2023-04-24T14:29:52;3.40;;;1.30;;
72408;SDS011;60402;48.082;11.628;2023-04-24T14:32:38;2.60;;;0.93;;
72408;SDS011;60402;48.082;11.628;2023-04-24T14:35:24;4.10;;;1.10;;
72408;SDS011;60402;48.082;11.628;2023-04-24T14:38:11;2.63;;;0.95;;
72408;SDS011;60402;48.082;11.628;2023-04-24T14:40:56;4.93;;;1.10;;
72408;SDS011;60402;48.082;11.628;2023-04-24T14:43:42;2.55;;;0.90;;
72408;SDS011;60402;48.082;11.628;2023-04-24T14:46:28;3.20;;;1.17;;
72408;SDS011;60402;48.082;11.628;2023-04-24T14:49:15;2.13;;;1.00;;
72408;SDS011;60402;48.082;11.628;2023-04-24T14:52:01;1.45;;;0.93;;
72408;SDS011;60402;48.082;11.628;2023-04-24T14:54:48;2.28;;;0.90;;
72408;SDS011;60402;48.082;11.628;2023-04-24T14:57:34;2.75;;;0.75;;
72408;SDS011;60402;48.082;11.628;2023-04-24T15:00:21;1.83;;;0.95;;
72408;SDS011;60402;48.082;11.628;2023-04-24T15:03:08;2.47;;;1.27;;
72408;SDS011;60402;48.082;11.628;2023-04-24T15:05:54;5.72;;;2.90;;
72408;SDS011;60402;48.082;11.628;2023-04-24T15:08:43;3.30;;;1.77;;
72408;SDS011;60402;48.082;11.628;2023-04-24T15:11:28;1.80;;;1.10;;
72408;SDS011;60402;48.082;11.628;2023-04-24T15:14:14;1.33;;;0.93;;
72408;SDS011;60402;48.082;11.628;2023-04-24T15:17:00;3.10;;;1.20;;
72408;SDS011;60402;48.082;11.628;2023-04-24T15:19:46;2.50;;;0.93;;
72408;SDS011;60402;48.082;11.628;2023-04-24T15:22:32;3.35;;;1.08;;
72408;SDS011;60402;48.082;11.628;2023-04-24T15:25:18;3.00;;;1.10;;
72408;SDS011;60402;48.082;11.628;2023-04-24T15:28:04;3.63;;;1.13;;
72408;SDS011;60402;48.082;11.628;2023-04-24T15:30:51;2.67;;;0.95;;
72408;SDS011;60402;48.082;11.628;2023-04-24T15:33:36;1.90;;;1.00;;
72408;SDS011;60402;48.082;11.628;2023-04-24T15:36:22;1.25;;;0.93;;
72408;SDS011;60402;48.082;11.628;2023-04-24T15:39:07;2.38;;;0.85;;
72408;SDS011;60402;48.082;11.628;2023-04-24T15:41:53;1.50;;;0.80;;
72408;SDS011;60402;48.082;11.628;2023-04-24T15:44:39;4.28;;;1.10;;
72408;SDS011;60402;48.082;11.628;2023-04-24T15:47:25;2.33;;;1.25;;
72408;SDS011;60402;48.082;11.628;2023-04-24T15:50:11;2.80;;;1.10;;
72408;SDS011;60402;48.082;11.628;2023-04-24T15:52:56;1.70;;;0.80;;
72408;SDS011;60402;48.082;11.628;2023-04-24T15:55:42;2.72;;;1.17;;
72408;SDS011;60402;48.082;11.628;2023-04-24T15:58:28;3.97;;;1.20;;
72408;SDS011;60402;48.082;11.628;2023-04-24T16:01:13;2.97;;;0.93;;
72408;SDS011;60402;48.082;11.628;2023-04-24T16:03:59;1.10;;;0.80;;
72408;SDS011;60402;48.082;11.628;2023-04-24T16:06:45;2.67;;;0.90;;
72408;SDS011;60402;48.082;11.628;2023-04-24T16:09:31;3.33;;;1.00;;
72408;SDS011;60402;48.082;11.628;2023-04-24T16:12:17;3.00;;;1.10;;
72408;SDS011;60402;48.082;11.628;2023-04-24T16:15:02;2.35;;;1.00;;
72408;SDS011;60402;48.082;11.628;2023-04-24T16:17:48;3.08;;;0.90;;
72408;SDS011;60402;48.082;11.628;2023-04-24T16:20:35;2.33;;;0.90;;
72408;SDS011;60402;48.082;11.628;2023-04-24T16:23:21;3.53;;;1.10;;
72408;SDS011;60402;48.082;11.628;2023-04-24T16:26:06;3.75;;;1.02;;
72408;SDS011;60402;48.082;11.628;2023-04-24T16:28:52;1.80;;;1.00;;
72408;SDS011;60402;48.082;11.628;2023-04-24T16:31:38;2.60;;;1.00;;
72408;SDS011;60402;48.082;11.628;2023-04-24T16:34:23;2.03;;;0.88;;